sensor_id;sensor_type;location;lat;lon;timestamp;P1;durP1;ratioP1;P2;durP2;ratioP2
4180;SDS011;2104;52.394;13.036;2023-04-25T00:00:54;7.70;;;2.83;;
4180;SDS011;2104;52.394;13.036;2023-04-25T00:03:19;8.90;;;2.45;;
4180;SDS011;2104;52.394;13.036;2023-04-25T00:05:46;5.40;;;2.90;;
4180;SDS011;2104;52.394;13.036;2023-04-25T00:08:11;23.00;;;3.63;;
4180;SDS011;2104;52.394;13.036;2023-04-25T00:10:37;9.63;;;3.42;;
4180;SDS011;2104;52.394;13.036;2023-04-25T00:13:02;14.52;;;4.18;;
4180;SDS011;2104;52.394;13.036;2023-04-25T00:15:28;6.65;;;3.00;;
4180;SDS011;2104;52.394;13.036;2023-04-25T00:17:55;4.68;;;2.75;;
4180;SDS011;2104;52.394;13.036;2023-04-25T00:20:21;10.57;;;3.33;;
4180;SDS011;2104;52.394;13.036;2023-04-25T00:22:48;10.45;;;3.00;;
4180;SDS011;2104;52.394;13.036;2023-04-25T00:25:14;7.40;;;3.08;;
4180;SDS011;2104;52.394;13.036;2023-04-25T00:27:39;6.90;;;3.60;;
4180;SDS011;2104;52.394;13.036;2023-04-25T00:30:06;10.68;;;3.47;;
4180;SDS011;2104;52.394;13.036;2023-04-25T00:32:32;5.28;;;3.70;;
4180;SDS011;2104;52.394;13.036;2023-04-25T00:34:58;5.55;;;2.70;;
4180;SDS011;2104;52.394;13.036;2023-04-25T00:37:23;7.72;;;3.25;;
4180;SDS011;2104;52.394;13.036;2023-04-25T00:39:49;6.13;;;3.28;;
4180;SDS011;2104;52.394;13.036;2023-04-25T00:42:14;11.63;;;3.90;;
4180;SDS011;2104;52.394;13.036;2023-04-25T00:44:40;11.57;;;3.90;;
4180;SDS011;2104;52.394;13.036;2023-04-25T00:47:06;7.57;;;3.08;;
4180;SDS011;2104;52.394;13.036;2023-04-25T00:49:31;9.32;;;3.08;;
4180;SDS011;2104;52.394;13.036;2023-04-25T00:51:57;6.80;;;3.15;;
4180;SDS011;2104;52.394;13.036;2023-04-25T00:54:22;6.57;;;3.05;;
4180;SDS011;2104;52.394;13.036;2023-04-25T00:56:48;9.57;;;3.28;;
4180;SDS011;2104;52.394;13.036;2023-04-25T00:59:14;12.50;;;3.45;;
4180;SDS011;2104;52.394;13.036;2023-04-25T01:01:40;10.10;;;3.95;;
4180;SDS011;2104;52.394;13.036;2023-04-25T01:04:06;8.50;;;3.53;;
4180;SDS011;2104;52.394;13.036;2023-04-25T01:06:32;8.52;;;3.08;;
4180;SDS011;2104;52.394;13.036;2023-04-25T01:08:57;11.35;;;3.97;;
4180;SDS011;2104;52.394;13.036;2023-04-25T01:11:24;8.07;;;3.17;;
4180;SDS011;2104;52.394;13.036;2023-04-25T01:13:49;8.80;;;3.55;;
4180;SDS011;2104;52.394;13.036;2023-04-25T01:16:14;6.00;;;3.17;;
4180;SDS011;2104;52.394;13.036;2023-04-25T01:18:40;10.07;;;3.08;;
4180;SDS011;2104;52.394;13.036;2023-04-25T01:21:07;9.20;;;3.40;;
4180;SDS011;2104;52.394;13.036;2023-04-25T01:23:37;9.95;;;3.25;;
4180;SDS011;2104;52.394;13.036;2023-04-25T01:26:04;10.75;;;3.65;;
4180;SDS011;2104;52.394;13.036;2023-04-25T01:28:31;5.72;;;3.88;;
4180;SDS011;2104;52.394;13.036;2023-04-25T01:30:58;9.02;;;3.55;;
4180;SDS011;2104;52.394;13.036;2023-04-25T01:33:24;6.40;;;2.78;;
4180;SDS011;2104;52.394;13.036;2023-04-25T01:35:50;10.60;;;3.20;;
4180;SDS011;2104;52.394;13.036;2023-04-25T01:38:15;10.05;;;3.08;;
4180;SDS011;2104;52.394;13.036;2023-04-25T01:40:40;10.98;;;3.55;;
4180;SDS011;2104;52.394;13.036;2023-04-25T01:43:09;11.15;;;3.33;;
4180;SDS011;2104;52.394;13.036;2023-04-25T01:45:36;9.07;;;3.78;;
4180;SDS011;2104;52.394;13.036;2023-04-25T01:48:04;10.13;;;3.70;;
4180;SDS011;2104;52.394;13.036;2023-04-25T01:50:30;9.65;;;3.72;;
4180;SDS011;2104;52.394;13.036;2023-04-25T01:52:56;9.13;;;4.05;;
4180;SDS011;2104;52.394;13.036;2023-04-25T01:55:21;12.30;;;4.25;;
4180;SDS011;2104;52.394;13.036;2023-04-25T01:57:46;9.57;;;3.33;;
4180;SDS011;2104;52.394;13.036;2023-04-25T02:00:12;12.13;;;4.13;;
4180;SDS011;2104;52.394;13.036;2023-04-25T02:02:38;7.57;;;4.60;;
4180;SDS011;2104;52.394;13.036;2023-04-25T02:05:03;12.38;;;4.60;;
4180;SDS011;2104;52.394;13.036;2023-04-25T02:07:29;18.52;;;4.50;;
4180;SDS011;2104;52.394;13.036;2023-04-25T02:09:54;9.27;;;4.57;;
4180;SDS011;2104;52.394;13.036;2023-04-25T02:12:19;10.98;;;4.43;;
4180;SDS011;2104;52.394;13.036;2023-04-25T02:14:45;7.78;;;3.42;;
4180;SDS011;2104;52.394;13.036;2023-04-25T02:17:10;11.00;;;4.43;;
4180;SDS011;2104;52.394;13.036;2023-04-25T02:19:37;6.72;;;4.07;;
4180;SDS011;2104;52.394;13.036;2023-04-25T02:22:03;11.88;;;5.18;;
4180;SDS011;2104;52.394;13.036;2023-04-25T02:24:28;12.73;;;4.75;;
4180;SDS011;2104;52.394;13.036;2023-04-25T02:26:54;14.85;;;4.60;;
4180;SDS011;2104;52.394;13.036;2023-04-25T02:29:20;9.07;;;4.55;;
4180;SDS011;2104;52.394;13.036;2023-04-25T02:31:46;14.38;;;5.53;;
4180;SDS011;2104;52.394;13.036;2023-04-25T02:34:11;16.33;;;5.10;;
4180;SDS011;2104;52.394;13.036;2023-04-25T02:36:37;7.93;;;3.90;;
4180;SDS011;2104;52.394;13.036;2023-04-25T02:39:02;10.90;;;4.32;;
4180;SDS011;2104;52.394;13.036;2023-04-25T02:41:28;19.83;;;5.15;;
4180;SDS011;2104;52.394;13.036;2023-04-25T02:43:53;12.98;;;5.15;;
4180;SDS011;2104;52.394;13.036;2023-04-25T02:46:19;8.60;;;4.70;;
4180;SDS011;2104;52.394;13.036;2023-04-25T02:48:45;10.95;;;5.03;;
4180;SDS011;2104;52.394;13.036;2023-04-25T02:51:10;11.85;;;4.50;;
4180;SDS011;2104;52.394;13.036;2023-04-25T02:53:35;10.88;;;6.10;;
4180;SDS011;2104;52.394;13.036;2023-04-25T02:56:01;11.75;;;4.75;;
4180;SDS011;2104;52.394;13.036;2023-04-25T02:58:26;16.25;;;5.00;;
4180;SDS011;2104;52.394;13.036;2023-04-25T03:00:52;9.68;;;4.47;;
4180;SDS011;2104;52.394;13.036;2023-04-25T03:03:17;12.57;;;4.57;;
4180;SDS011;2104;52.394;13.036;2023-04-25T03:05:46;15.48;;;5.47;;
4180;SDS011;2104;52.394;13.036;2023-04-25T03:08:11;13.95;;;5.70;;
4180;SDS011;2104;52.394;13.036;2023-04-25T03:10:38;9.48;;;4.30;;
4180;SDS011;2104;52.394;13.036;2023-04-25T03:13:03;15.05;;;4.88;;
4180;SDS011;2104;52.394;13.036;2023-04-25T03:15:28;10.18;;;4.15;;
4180;SDS011;2104;52.394;13.036;2023-04-25T03:17:54;12.70;;;5.57;;
4180;SDS011;2104;52.394;13.036;2023-04-25T03:20:19;6.93;;;4.20;;
4180;SDS011;2104;52.394;13.036;2023-04-25T03:22:45;10.38;;;4.53;;
4180;SDS011;2104;52.394;13.036;2023-04-25T03:25:10;9.68;;;5.32;;
4180;SDS011;2104;52.394;13.036;2023-04-25T03:27:36;10.95;;;4.78;;
4180;SDS011;2104;52.394;13.036;2023-04-25T03:30:01;14.05;;;4.70;;
4180;SDS011;2104;52.394;13.036;2023-04-25T03:32:27;13.68;;;5.53;;
4180;SDS011;2104;52.394;13.036;2023-04-25T03:34:53;14.30;;;6.07;;
4180;SDS011;2104;52.394;13.036;2023-04-25T03:37:18;10.07;;;5.35;;
4180;SDS011;2104;52.394;13.036;2023-04-25T03:39:43;14.02;;;5.32;;
4180;SDS011;2104;52.394;13.036;2023-04-25T03:42:09;10.68;;;5.05;;
4180;SDS011;2104;52.394;13.036;2023-04-25T03:44:34;12.25;;;5.38;;
4180;SDS011;2104;52.394;13.036;2023-04-25T03:47:00;9.90;;;4.60;;
4180;SDS011;2104;52.394;13.036;2023-04-25T03:49:25;9.85;;;5.22;;
4180;SDS011;2104;52.394;13.036;2023-04-25T03:51:51;12.50;;;5.22;;
4180;SDS011;2104;52.394;13.036;2023-04-25T03:54:16;19.42;;;6.15;;
4180;SDS011;2104;52.394;13.036;2023-04-25T03:56:41;14.95;;;5.18;;
4180;SDS011;2104;52.394;13.036;2023-04-25T03:59:07;16.75;;;5.20;;
4180;SDS011;2104;52.394;13.036;2023-04-25T04:01:32;10.23;;;5.57;;
4180;SDS011;2104;52.394;13.036;2023-04-25T04:03:58;15.18;;;5.70;;
4180;SDS011;2104;52.394;13.036;2023-04-25T04:06:23;12.30;;;5.63;;
4180;SDS011;2104;52.394;13.036;2023-04-25T04:08:49;10.43;;;4.95;;
4180;SDS011;2104;52.394;13.036;2023-04-25T04:11:14;16.17;;;5.55;;
4180;SDS011;2104;52.394;13.036;2023-04-25T04:13:39;13.88;;;5.85;;
4180;SDS011;2104;52.394;13.036;2023-04-25T04:16:05;9.15;;;4.95;;
4180;SDS011;2104;52.394;13.036;2023-04-25T04:18:30;10.80;;;5.97;;
4180;SDS011;2104;52.394;13.036;2023-04-25T04:20:56;14.27;;;5.78;;
4180;SDS011;2104;52.394;13.036;2023-04-25T04:23:23;13.80;;;5.40;;
4180;SDS011;2104;52.394;13.036;2023-04-25T04:25:48;17.48;;;6.53;;
4180;SDS011;2104;52.394;13.036;2023-04-25T04:28:13;17.38;;;6.07;;
4180;SDS011;2104;52.394;13.036;2023-04-25T04:30:39;17.15;;;7.60;;
4180;SDS011;2104;52.394;13.036;2023-04-25T04:33:06;12.65;;;6.20;;
4180;SDS011;2104;52.394;13.036;2023-04-25T04:35:32;16.05;;;7.35;;
4180;SDS011;2104;52.394;13.036;2023-04-25T04:37:57;11.15;;;5.63;;
4180;SDS011;2104;52.394;13.036;2023-04-25T04:40:23;14.55;;;6.22;;
4180;SDS011;2104;52.394;13.036;2023-04-25T04:42:48;11.50;;;6.22;;
4180;SDS011;2104;52.394;13.036;2023-04-25T04:45:14;12.93;;;6.80;;
4180;SDS011;2104;52.394;13.036;2023-04-25T04:47:41;14.23;;;6.75;;
4180;SDS011;2104;52.394;13.036;2023-04-25T04:50:07;20.90;;;5.97;;
4180;SDS011;2104;52.394;13.036;2023-04-25T04:52:34;19.02;;;6.30;;
4180;SDS011;2104;52.394;13.036;2023-04-25T04:55:00;11.18;;;5.57;;
4180;SDS011;2104;52.394;13.036;2023-04-25T04:57:26;11.27;;;5.93;;
4180;SDS011;2104;52.394;13.036;2023-04-25T04:59:52;10.20;;;6.25;;
4180;SDS011;2104;52.394;13.036;2023-04-25T05:02:18;14.23;;;5.82;;
4180;SDS011;2104;52.394;13.036;2023-04-25T05:04:43;16.73;;;6.88;;
4180;SDS011;2104;52.394;13.036;2023-04-25T05:07:09;12.95;;;5.80;;
4180;SDS011;2104;52.394;13.036;2023-04-25T05:09:34;18.30;;;7.32;;
4180;SDS011;2104;52.394;13.036;2023-04-25T05:12:00;20.38;;;6.93;;
4180;SDS011;2104;52.394;13.036;2023-04-25T05:14:26;18.02;;;6.93;;
4180;SDS011;2104;52.394;13.036;2023-04-25T05:16:51;11.50;;;6.25;;
4180;SDS011;2104;52.394;13.036;2023-04-25T05:19:16;16.98;;;7.20;;
4180;SDS011;2104;52.394;13.036;2023-04-25T05:21:42;12.05;;;6.53;;
4180;SDS011;2104;52.394;13.036;2023-04-25T05:24:08;19.15;;;6.53;;
4180;SDS011;2104;52.394;13.036;2023-04-25T05:26:33;15.48;;;6.20;;
4180;SDS011;2104;52.394;13.036;2023-04-25T05:28:59;8.73;;;5.43;;
4180;SDS011;2104;52.394;13.036;2023-04-25T05:31:25;17.85;;;6.28;;
4180;SDS011;2104;52.394;13.036;2023-04-25T05:33:50;12.75;;;5.75;;
4180;SDS011;2104;52.394;13.036;2023-04-25T05:36:16;18.85;;;5.63;;
4180;SDS011;2104;52.394;13.036;2023-04-25T05:38:41;18.90;;;6.72;;
4180;SDS011;2104;52.394;13.036;2023-04-25T05:41:07;21.13;;;6.55;;
4180;SDS011;2104;52.394;13.036;2023-04-25T05:43:32;20.00;;;6.50;;
4180;SDS011;2104;52.394;13.036;2023-04-25T05:45:58;12.10;;;6.72;;
4180;SDS011;2104;52.394;13.036;2023-04-25T05:48:23;9.70;;;5.68;;
4180;SDS011;2104;52.394;13.036;2023-04-25T05:50:49;17.08;;;5.75;;
4180;SDS011;2104;52.394;13.036;2023-04-25T05:53:14;14.95;;;6.50;;
4180;SDS011;2104;52.394;13.036;2023-04-25T05:55:40;17.83;;;6.18;;
4180;SDS011;2104;52.394;13.036;2023-04-25T05:58:05;12.73;;;6.63;;
4180;SDS011;2104;52.394;13.036;2023-04-25T06:00:32;12.82;;;6.82;;
4180;SDS011;2104;52.394;13.036;2023-04-25T06:02:57;13.45;;;6.68;;
4180;SDS011;2104;52.394;13.036;2023-04-25T06:05:23;16.80;;;6.28;;
4180;SDS011;2104;52.394;13.036;2023-04-25T06:07:48;11.25;;;6.03;;
4180;SDS011;2104;52.394;13.036;2023-04-25T06:10:13;15.65;;;7.30;;
4180;SDS011;2104;52.394;13.036;2023-04-25T06:12:39;12.48;;;5.70;;
4180;SDS011;2104;52.394;13.036;2023-04-25T06:15:05;12.93;;;6.00;;
4180;SDS011;2104;52.394;13.036;2023-04-25T06:17:31;14.05;;;5.45;;
4180;SDS011;2104;52.394;13.036;2023-04-25T06:19:56;13.93;;;5.82;;
4180;SDS011;2104;52.394;13.036;2023-04-25T06:22:22;12.75;;;6.15;;
4180;SDS011;2104;52.394;13.036;2023-04-25T06:24:47;12.85;;;6.05;;
4180;SDS011;2104;52.394;13.036;2023-04-25T06:27:13;14.88;;;6.43;;
4180;SDS011;2104;52.394;13.036;2023-04-25T06:29:38;10.27;;;5.80;;
4180;SDS011;2104;52.394;13.036;2023-04-25T06:32:04;23.92;;;7.32;;
4180;SDS011;2104;52.394;13.036;2023-04-25T06:34:30;15.82;;;6.22;;
4180;SDS011;2104;52.394;13.036;2023-04-25T06:36:55;12.65;;;6.20;;
4180;SDS011;2104;52.394;13.036;2023-04-25T06:39:21;13.93;;;6.75;;
4180;SDS011;2104;52.394;13.036;2023-04-25T06:41:48;11.95;;;6.55;;
4180;SDS011;2104;52.394;13.036;2023-04-25T06:44:14;15.68;;;6.60;;
4180;SDS011;2104;52.394;13.036;2023-04-25T06:46:40;10.15;;;5.15;;
4180;SDS011;2104;52.394;13.036;2023-04-25T06:49:05;10.23;;;5.15;;
4180;SDS011;2104;52.394;13.036;2023-04-25T06:51:31;15.75;;;5.78;;
4180;SDS011;2104;52.394;13.036;2023-04-25T06:53:56;17.55;;;7.13;;
4180;SDS011;2104;52.394;13.036;2023-04-25T06:56:22;14.45;;;5.53;;
4180;SDS011;2104;52.394;13.036;2023-04-25T06:58:48;14.05;;;4.93;;
4180;SDS011;2104;52.394;13.036;2023-04-25T07:01:13;11.25;;;5.18;;
4180;SDS011;2104;52.394;13.036;2023-04-25T07:03:39;12.10;;;5.05;;
4180;SDS011;2104;52.394;13.036;2023-04-25T07:06:04;15.10;;;4.38;;
4180;SDS011;2104;52.394;13.036;2023-04-25T07:08:30;12.70;;;4.03;;
4180;SDS011;2104;52.394;13.036;2023-04-25T07:10:55;13.15;;;4.50;;
4180;SDS011;2104;52.394;13.036;2023-04-25T07:13:21;15.13;;;5.05;;
4180;SDS011;2104;52.394;13.036;2023-04-25T07:15:46;16.13;;;5.35;;
4180;SDS011;2104;52.394;13.036;2023-04-25T07:18:13;10.82;;;5.75;;
4180;SDS011;2104;52.394;13.036;2023-04-25T07:20:38;12.75;;;4.82;;
4180;SDS011;2104;52.394;13.036;2023-04-25T07:23:04;18.58;;;5.05;;
4180;SDS011;2104;52.394;13.036;2023-04-25T07:25:29;22.40;;;5.22;;
4180;SDS011;2104;52.394;13.036;2023-04-25T07:27:55;20.58;;;5.05;;
4180;SDS011;2104;52.394;13.036;2023-04-25T07:30:21;16.38;;;5.63;;
4180;SDS011;2104;52.394;13.036;2023-04-25T07:32:46;19.58;;;5.82;;
4180;SDS011;2104;52.394;13.036;2023-04-25T07:35:12;19.25;;;5.45;;
4180;SDS011;2104;52.394;13.036;2023-04-25T07:37:37;21.88;;;5.95;;
4180;SDS011;2104;52.394;13.036;2023-04-25T07:40:03;24.98;;;5.20;;
4180;SDS011;2104;52.394;13.036;2023-04-25T07:42:29;22.05;;;6.68;;
4180;SDS011;2104;52.394;13.036;2023-04-25T07:44:55;23.58;;;6.53;;
4180;SDS011;2104;52.394;13.036;2023-04-25T07:47:21;14.50;;;4.65;;
4180;SDS011;2104;52.394;13.036;2023-04-25T07:49:46;29.20;;;6.88;;
4180;SDS011;2104;52.394;13.036;2023-04-25T07:52:12;21.17;;;5.25;;
4180;SDS011;2104;52.394;13.036;2023-04-25T07:54:37;18.13;;;4.95;;
4180;SDS011;2104;52.394;13.036;2023-04-25T07:57:03;16.48;;;5.28;;
4180;SDS011;2104;52.394;13.036;2023-04-25T07:59:28;17.77;;;5.00;;
4180;SDS011;2104;52.394;13.036;2023-04-25T08:01:54;24.00;;;6.18;;
4180;SDS011;2104;52.394;13.036;2023-04-25T08:04:20;17.27;;;4.20;;
4180;SDS011;2104;52.394;13.036;2023-04-25T08:06:45;17.38;;;5.13;;
4180;SDS011;2104;52.394;13.036;2023-04-25T08:09:11;20.45;;;6.13;;
4180;SDS011;2104;52.394;13.036;2023-04-25T08:11:36;30.80;;;5.57;;
4180;SDS011;2104;52.394;13.036;2023-04-25T08:14:02;16.85;;;5.35;;
4180;SDS011;2104;52.394;13.036;2023-04-25T08:16:28;25.15;;;5.47;;
4180;SDS011;2104;52.394;13.036;2023-04-25T08:18:53;25.35;;;4.80;;
4180;SDS011;2104;52.394;13.036;2023-04-25T08:21:19;15.85;;;5.07;;
4180;SDS011;2104;52.394;13.036;2023-04-25T08:23:45;15.05;;;3.67;;
4180;SDS011;2104;52.394;13.036;2023-04-25T08:26:11;20.00;;;4.65;;
4180;SDS011;2104;52.394;13.036;2023-04-25T08:28:36;18.88;;;4.53;;
4180;SDS011;2104;52.394;13.036;2023-04-25T08:31:02;11.55;;;4.15;;
4180;SDS011;2104;52.394;13.036;2023-04-25T08:33:27;17.70;;;5.22;;
4180;SDS011;2104;52.394;13.036;2023-04-25T08:35:53;9.30;;;4.07;;
4180;SDS011;2104;52.394;13.036;2023-04-25T08:38:18;20.30;;;5.15;;
4180;SDS011;2104;52.394;13.036;2023-04-25T08:40:44;30.08;;;4.88;;
4180;SDS011;2104;52.394;13.036;2023-04-25T08:43:14;18.42;;;3.80;;
4180;SDS011;2104;52.394;13.036;2023-04-25T08:45:40;13.80;;;4.13;;
4180;SDS011;2104;52.394;13.036;2023-04-25T08:48:16;21.67;;;4.93;;
4180;SDS011;2104;52.394;13.036;2023-04-25T08:50:52;17.27;;;3.50;;
4180;SDS011;2104;52.394;13.036;2023-04-25T08:53:36;19.38;;;3.10;;
4180;SDS011;2104;52.394;13.036;2023-04-25T08:56:01;16.35;;;3.20;;
4180;SDS011;2104;52.394;13.036;2023-04-25T08:58:27;25.02;;;5.75;;
4180;SDS011;2104;52.394;13.036;2023-04-25T09:00:53;16.75;;;3.35;;
4180;SDS011;2104;52.394;13.036;2023-04-25T09:03:19;17.75;;;4.18;;
4180;SDS011;2104;52.394;13.036;2023-04-25T09:05:45;17.02;;;3.63;;
4180;SDS011;2104;52.394;13.036;2023-04-25T09:08:10;18.88;;;4.72;;
4180;SDS011;2104;52.394;13.036;2023-04-25T09:10:36;16.00;;;3.70;;
4180;SDS011;2104;52.394;13.036;2023-04-25T09:13:02;18.70;;;4.90;;
4180;SDS011;2104;52.394;13.036;2023-04-25T09:15:30;15.02;;;3.47;;
4180;SDS011;2104;52.394;13.036;2023-04-25T09:17:57;12.10;;;2.97;;
4180;SDS011;2104;52.394;13.036;2023-04-25T09:20:23;15.23;;;3.80;;
4180;SDS011;2104;52.394;13.036;2023-04-25T09:22:49;12.82;;;4.13;;
4180;SDS011;2104;52.394;13.036;2023-04-25T09:25:26;15.45;;;3.88;;
4180;SDS011;2104;52.394;13.036;2023-04-25T09:27:52;16.35;;;3.55;;
4180;SDS011;2104;52.394;13.036;2023-04-25T09:30:26;16.63;;;4.30;;
4180;SDS011;2104;52.394;13.036;2023-04-25T09:33:13;13.60;;;3.95;;
4180;SDS011;2104;52.394;13.036;2023-04-25T09:35:42;15.98;;;2.97;;
4180;SDS011;2104;52.394;13.036;2023-04-25T09:38:12;15.60;;;3.35;;
4180;SDS011;2104;52.394;13.036;2023-04-25T09:40:42;13.30;;;4.28;;
4180;SDS011;2104;52.394;13.036;2023-04-25T09:43:21;23.92;;;3.53;;
4180;SDS011;2104;52.394;13.036;2023-04-25T09:45:47;18.02;;;3.70;;
4180;SDS011;2104;52.394;13.036;2023-04-25T09:48:22;15.32;;;3.63;;
4180;SDS011;2104;52.394;13.036;2023-04-25T09:51:31;9.40;;;2.80;;
4180;SDS011;2104;52.394;13.036;2023-04-25T09:53:42;12.23;;;2.35;;
4180;SDS011;2104;52.394;13.036;2023-04-25T09:56:10;16.15;;;3.33;;
4180;SDS011;2104;52.394;13.036;2023-04-25T09:58:37;8.10;;;2.58;;
4180;SDS011;2104;52.394;13.036;2023-04-25T10:01:04;7.18;;;2.97;;
4180;SDS011;2104;52.394;13.036;2023-04-25T10:03:34;13.48;;;2.33;;
4180;SDS011;2104;52.394;13.036;2023-04-25T10:06:02;15.43;;;2.63;;
4180;SDS011;2104;52.394;13.036;2023-04-25T10:08:33;9.38;;;2.50;;
4180;SDS011;2104;52.394;13.036;2023-04-25T10:11:00;9.90;;;2.47;;
4180;SDS011;2104;52.394;13.036;2023-04-25T10:13:27;10.02;;;2.45;;
4180;SDS011;2104;52.394;13.036;2023-04-25T10:15:54;18.05;;;3.63;;
4180;SDS011;2104;52.394;13.036;2023-04-25T10:18:21;13.77;;;3.25;;
4180;SDS011;2104;52.394;13.036;2023-04-25T10:20:46;16.42;;;3.17;;
4180;SDS011;2104;52.394;13.036;2023-04-25T10:23:15;18.42;;;4.25;;
4180;SDS011;2104;52.394;13.036;2023-04-25T10:25:42;13.73;;;2.55;;
4180;SDS011;2104;52.394;13.036;2023-04-25T10:28:07;15.40;;;3.58;;
4180;SDS011;2104;52.394;13.036;2023-04-25T10:30:33;13.40;;;2.88;;
4180;SDS011;2104;52.394;13.036;2023-04-25T10:32:58;16.77;;;4.25;;
4180;SDS011;2104;52.394;13.036;2023-04-25T10:35:28;15.02;;;3.55;;
4180;SDS011;2104;52.394;13.036;2023-04-25T10:37:58;10.75;;;2.90;;
4180;SDS011;2104;52.394;13.036;2023-04-25T10:40:30;7.88;;;2.70;;
4180;SDS011;2104;52.394;13.036;2023-04-25T10:42:56;12.80;;;3.30;;
4180;SDS011;2104;52.394;13.036;2023-04-25T10:45:57;27.75;;;3.10;;
4180;SDS011;2104;52.394;13.036;2023-04-25T10:48:25;17.00;;;3.75;;
4180;SDS011;2104;52.394;13.036;2023-04-25T10:58:46;7.22;;;2.67;;
4180;SDS011;2104;52.394;13.036;2023-04-25T11:01:13;10.00;;;2.75;;
4180;SDS011;2104;52.394;13.036;2023-04-25T11:03:43;16.52;;;3.63;;
4180;SDS011;2104;52.394;13.036;2023-04-25T11:06:22;12.07;;;3.65;;
4180;SDS011;2104;52.394;13.036;2023-04-25T11:08:51;10.77;;;2.72;;
4180;SDS011;2104;52.394;13.036;2023-04-25T11:11:17;14.65;;;2.88;;
4180;SDS011;2104;52.394;13.036;2023-04-25T11:13:43;11.00;;;2.75;;
4180;SDS011;2104;52.394;13.036;2023-04-25T11:16:09;11.20;;;4.10;;
4180;SDS011;2104;52.394;13.036;2023-04-25T11:18:35;16.60;;;3.03;;
4180;SDS011;2104;52.394;13.036;2023-04-25T11:21:02;13.75;;;3.42;;
4180;SDS011;2104;52.394;13.036;2023-04-25T11:23:27;12.73;;;2.80;;
4180;SDS011;2104;52.394;13.036;2023-04-25T11:25:55;18.38;;;2.60;;
4180;SDS011;2104;52.394;13.036;2023-04-25T11:28:21;22.23;;;4.00;;
4180;SDS011;2104;52.394;13.036;2023-04-25T11:30:50;16.23;;;2.97;;
4180;SDS011;2104;52.394;13.036;2023-04-25T11:33:15;16.23;;;3.33;;
4180;SDS011;2104;52.394;13.036;2023-04-25T11:35:41;13.20;;;2.15;;
4180;SDS011;2104;52.394;13.036;2023-04-25T11:38:07;7.95;;;2.28;;
4180;SDS011;2104;52.394;13.036;2023-04-25T11:40:32;12.40;;;2.72;;
4180;SDS011;2104;52.394;13.036;2023-04-25T11:42:59;7.82;;;2.05;;
4180;SDS011;2104;52.394;13.036;2023-04-25T11:45:25;18.75;;;3.08;;
4180;SDS011;2104;52.394;13.036;2023-04-25T11:47:51;10.30;;;2.30;;
4180;SDS011;2104;52.394;13.036;2023-04-25T11:50:16;13.23;;;2.38;;
4180;SDS011;2104;52.394;13.036;2023-04-25T11:52:42;11.85;;;2.17;;
4180;SDS011;2104;52.394;13.036;2023-04-25T11:55:09;8.18;;;1.85;;
4180;SDS011;2104;52.394;13.036;2023-04-25T11:57:38;8.93;;;2.10;;
4180;SDS011;2104;52.394;13.036;2023-04-25T12:00:08;7.32;;;1.73;;
4180;SDS011;2104;52.394;13.036;2023-04-25T12:02:45;14.32;;;2.50;;
4180;SDS011;2104;52.394;13.036;2023-04-25T12:05:13;10.77;;;2.55;;
4180;SDS011;2104;52.394;13.036;2023-04-25T12:07:40;7.65;;;2.25;;
4180;SDS011;2104;52.394;13.036;2023-04-25T12:12:35;8.25;;;2.47;;
4180;SDS011;2104;52.394;13.036;2023-04-25T12:15:08;7.65;;;1.70;;
4180;SDS011;2104;52.394;13.036;2023-04-25T12:17:35;10.82;;;2.40;;
4180;SDS011;2104;52.394;13.036;2023-04-25T12:20:05;8.57;;;2.67;;
4180;SDS011;2104;52.394;13.036;2023-04-25T12:22:35;8.25;;;2.33;;
4180;SDS011;2104;52.394;13.036;2023-04-25T12:25:01;14.50;;;2.08;;
4180;SDS011;2104;52.394;13.036;2023-04-25T12:27:30;7.30;;;1.95;;
4180;SDS011;2104;52.394;13.036;2023-04-25T12:29:56;11.48;;;2.72;;
4180;SDS011;2104;52.394;13.036;2023-04-25T12:32:22;13.88;;;2.30;;
4180;SDS011;2104;52.394;13.036;2023-04-25T12:34:47;11.23;;;2.47;;
4180;SDS011;2104;52.394;13.036;2023-04-25T12:37:13;7.72;;;2.05;;
4180;SDS011;2104;52.394;13.036;2023-04-25T12:39:38;14.32;;;2.47;;
4180;SDS011;2104;52.394;13.036;2023-04-25T12:42:04;14.02;;;2.92;;
4180;SDS011;2104;52.394;13.036;2023-04-25T12:44:29;6.82;;;2.05;;
4180;SDS011;2104;52.394;13.036;2023-04-25T12:46:54;15.43;;;2.88;;
4180;SDS011;2104;52.394;13.036;2023-04-25T12:49:20;17.25;;;3.20;;
4180;SDS011;2104;52.394;13.036;2023-04-25T12:51:46;11.23;;;3.17;;
4180;SDS011;2104;52.394;13.036;2023-04-25T12:54:12;11.25;;;2.95;;
4180;SDS011;2104;52.394;13.036;2023-04-25T12:56:39;14.65;;;3.42;;
4180;SDS011;2104;52.394;13.036;2023-04-25T12:59:05;12.15;;;2.78;;
4180;SDS011;2104;52.394;13.036;2023-04-25T13:01:31;7.47;;;2.67;;
4180;SDS011;2104;52.394;13.036;2023-04-25T13:03:57;8.35;;;2.63;;
4180;SDS011;2104;52.394;13.036;2023-04-25T13:06:22;8.68;;;3.58;;
4180;SDS011;2104;52.394;13.036;2023-04-25T13:08:48;7.07;;;2.10;;
4180;SDS011;2104;52.394;13.036;2023-04-25T13:11:13;14.68;;;3.08;;
4180;SDS011;2104;52.394;13.036;2023-04-25T13:13:41;5.28;;;1.92;;
4180;SDS011;2104;52.394;13.036;2023-04-25T13:16:07;10.90;;;1.98;;
4180;SDS011;2104;52.394;13.036;2023-04-25T13:18:33;8.30;;;2.25;;
4180;SDS011;2104;52.394;13.036;2023-04-25T13:20:59;8.80;;;2.15;;
4180;SDS011;2104;52.394;13.036;2023-04-25T13:23:25;9.75;;;3.13;;
4180;SDS011;2104;52.394;13.036;2023-04-25T13:25:53;6.88;;;2.05;;
4180;SDS011;2104;52.394;13.036;2023-04-25T13:28:20;6.78;;;1.58;;
4180;SDS011;2104;52.394;13.036;2023-04-25T13:30:46;26.05;;;2.83;;
4180;SDS011;2104;52.394;13.036;2023-04-25T13:33:13;5.65;;;2.05;;
4180;SDS011;2104;52.394;13.036;2023-04-25T13:35:38;6.47;;;2.00;;
4180;SDS011;2104;52.394;13.036;2023-04-25T13:38:04;14.23;;;2.92;;
4180;SDS011;2104;52.394;13.036;2023-04-25T13:40:29;12.00;;;2.60;;
4180;SDS011;2104;52.394;13.036;2023-04-25T13:42:55;4.75;;;1.83;;
4180;SDS011;2104;52.394;13.036;2023-04-25T13:45:21;6.72;;;3.13;;
4180;SDS011;2104;52.394;13.036;2023-04-25T13:47:47;9.35;;;1.80;;
4180;SDS011;2104;52.394;13.036;2023-04-25T13:50:12;9.90;;;2.42;;
4180;SDS011;2104;52.394;13.036;2023-04-25T13:52:38;9.02;;;2.60;;
4180;SDS011;2104;52.394;13.036;2023-04-25T13:55:04;8.10;;;1.88;;
4180;SDS011;2104;52.394;13.036;2023-04-25T13:57:31;9.68;;;2.40;;
4180;SDS011;2104;52.394;13.036;2023-04-25T13:59:57;17.02;;;2.78;;
4180;SDS011;2104;52.394;13.036;2023-04-25T14:02:23;10.15;;;2.35;;
4180;SDS011;2104;52.394;13.036;2023-04-25T14:04:48;7.32;;;2.20;;
4180;SDS011;2104;52.394;13.036;2023-04-25T14:07:14;15.27;;;2.40;;
4180;SDS011;2104;52.394;13.036;2023-04-25T14:09:43;17.13;;;2.72;;
4180;SDS011;2104;52.394;13.036;2023-04-25T14:12:08;7.45;;;2.80;;
4180;SDS011;2104;52.394;13.036;2023-04-25T14:14:34;9.57;;;2.78;;
4180;SDS011;2104;52.394;13.036;2023-04-25T14:16:59;15.73;;;6.72;;
4180;SDS011;2104;52.394;13.036;2023-04-25T14:19:25;21.67;;;10.10;;
4180;SDS011;2104;52.394;13.036;2023-04-25T14:21:53;16.33;;;5.65;;
4180;SDS011;2104;52.394;13.036;2023-04-25T14:24:19;9.48;;;2.20;;
4180;SDS011;2104;52.394;13.036;2023-04-25T14:26:44;17.05;;;3.00;;
4180;SDS011;2104;52.394;13.036;2023-04-25T14:29:10;9.07;;;3.15;;
4180;SDS011;2104;52.394;13.036;2023-04-25T14:31:37;10.35;;;3.25;;
4180;SDS011;2104;52.394;13.036;2023-04-25T14:34:02;8.27;;;2.95;;
4180;SDS011;2104;52.394;13.036;2023-04-25T14:36:28;9.30;;;2.80;;
4180;SDS011;2104;52.394;13.036;2023-04-25T14:38:53;6.72;;;2.58;;
4180;SDS011;2104;52.394;13.036;2023-04-25T14:41:19;8.48;;;2.22;;
4180;SDS011;2104;52.394;13.036;2023-04-25T14:43:44;9.43;;;2.60;;
4180;SDS011;2104;52.394;13.036;2023-04-25T14:46:10;8.35;;;2.70;;
4180;SDS011;2104;52.394;13.036;2023-04-25T14:48:36;9.85;;;2.88;;
4180;SDS011;2104;52.394;13.036;2023-04-25T14:51:01;4.22;;;1.73;;
4180;SDS011;2104;52.394;13.036;2023-04-25T14:53:27;12.20;;;2.72;;
4180;SDS011;2104;52.394;13.036;2023-04-25T14:55:52;8.57;;;2.08;;